Time;durP1;ratioP1;P1;durP2;ratioP2;P2;SDS_P1;SDS_P2;PMS_P1;PMS_P2;Temp;Humidity;BMP_temperature;BMP_pressure;BME280_temperature;BME280_humidity;BME280_pressure;Samples;Min_cycle;Max_cycle;Signal;HPM_P1;HPM_P2
2023/03/13 00:00:06;;;;;;;;;2.00;1.00;;;;;14.94;72.65;100009.28;5056758;28;45582;-75
2023/03/13 00:02:32;;;;;;;;;2.00;2.00;;;;;14.94;73.06;100008.47;5056511;28;45677;-74
2023/03/13 00:04:57;;;;;;;;;2.25;2.00;;;;;14.95;72.82;100004.84;5056603;28;45614;-74
2023/03/13 00:07:22;;;;;;;;;1.00;1.00;;;;;14.90;73.04;99999.19;5055918;28;45530;-74
2023/03/13 00:09:48;;;;;;;;;1.00;1.00;;;;;14.92;72.64;100000.69;5056643;28;45492;-74
2023/03/13 00:12:13;;;;;;;;;4.00;3.00;;;;;14.87;72.82;99997.66;5056482;28;45744;-74
2023/03/13 00:14:39;;;;;;;;;1.75;1.75;;;;;14.93;72.96;100002.34;5056700;28;45686;-74
2023/03/13 00:17:04;;;;;;;;;2.00;2.00;;;;;14.93;73.14;99991.78;5056058;28;46574;-74
2023/03/13 00:19:29;;;;;;;;;2.00;2.00;;;;;14.85;73.04;99989.06;5056192;28;47057;-74
2023/03/13 00:21:55;;;;;;;;;2.00;2.00;;;;;14.92;73.17;99999.84;5055960;28;45534;-73
2023/03/13 00:27:42;;;;;;;;;2.25;1.00;;;;;14.93;72.98;99989.16;5056010;28;45653;-75
2023/03/13 00:30:08;;;;;;;;;2.00;2.00;;;;;14.98;73.33;99993.97;5071866;28;47124;-75
2023/03/13 00:32:39;;;;;;;;;2.25;2.25;;;;;14.98;73.14;99993.97;5038006;28;45635;-74
2023/03/13 00:35:05;;;;;;;;;1.00;1.00;;;;;14.92;72.94;99990.13;5056123;28;45586;-73
2023/03/13 00:37:31;;;;;;;;;1.00;1.00;;;;;14.88;73.15;99972.97;5056080;28;46571;-75
2023/03/13 00:39:56;;;;;;;;;1.50;1.00;;;;;14.98;73.25;99992.16;5056236;28;46277;-75
2023/03/13 00:42:21;;;;;;;;;1.25;1.25;;;;;14.95;72.86;99984.53;5071340;28;45827;-75
2023/03/13 00:44:47;;;;;;;;;3.75;2.00;;;;;14.91;73.21;99972.66;5056439;28;45770;-75
2023/03/13 00:47:12;;;;;;;;;1.75;1.75;;;;;14.97;73.17;99990.50;5056047;28;45661;-75
2023/03/13 00:49:37;;;;;;;;;2.75;2.75;;;;;14.96;73.47;99974.81;5055711;28;45677;-75
2023/03/13 00:52:03;;;;;;;;;3.00;2.50;;;;;14.94;73.23;99988.19;5055681;28;45526;-75
2023/03/13 00:57:50;;;;;;;;;1.50;1.00;;;;;14.94;73.44;99995.25;5058436;28;45547;-75
2023/03/13 01:00:15;;;;;;;;;1.50;1.50;;;;;14.90;73.06;99988.66;5056088;28;45653;-74
2023/03/13 01:02:42;;;;;;;;;1.00;1.00;;;;;14.90;72.92;99988.66;5055678;28;45609;-76
2023/03/13 01:05:08;;;;;;;;;3.50;2.00;;;;;14.89;73.36;100003.63;5037382;28;45692;-74
2023/03/13 01:07:33;;;;;;;;;3.00;2.00;;;;;14.91;73.18;99991.09;5056034;28;45468;-75
2023/03/13 01:13:20;;;;;;;;;2.50;2.25;;;;;14.92;73.24;99966.41;5055499;28;45749;-74
2023/03/13 01:15:45;;;;;;;;;2.00;2.00;;;;;14.93;73.05;99957.50;5055394;28;45584;-73
2023/03/13 01:18:14;;;;;;;;;2.00;2.00;;;;;14.94;72.93;99955.69;5055372;28;46312;-76
2023/03/13 01:20:39;;;;;;;;;2.25;2.00;;;;;14.97;72.58;99943.03;5054759;28;46401;-74
2023/03/13 01:23:05;;;;;;;;;4.50;2.50;;;;;15.00;72.64;99947.19;5054778;28;45486;-74
2023/03/13 01:25:30;;;;;;;;;2.00;2.00;;;;;15.01;72.69;99951.44;5055431;28;45784;-76
2023/03/13 01:27:55;;;;;;;;;2.00;2.00;;;;;15.01;72.46;99933.81;5055448;28;45684;-75
2023/03/13 01:30:21;;;;;;;;;4.00;2.75;;;;;15.02;72.52;99922.28;5036903;28;46058;-75
2023/03/13 01:32:46;;;;;;;;;3.50;2.75;;;;;15.03;72.45;99937.13;5055400;28;45708;-75
2023/03/13 01:35:11;;;;;;;;;3.00;2.50;;;;;15.06;72.05;99939.44;5055513;28;45628;-75
2023/03/13 01:37:37;;;;;;;;;4.00;3.00;;;;;15.07;72.12;99942.91;5055075;28;47532;-75
2023/03/13 01:43:29;;;;;;;;;3.25;2.00;;;;;15.14;72.03;99943.97;5054639;28;45493;-75
2023/03/13 01:46:16;;;;;;;;;2.00;2.00;;;;;15.07;71.98;99930.56;5054919;28;45611;-74
2023/03/13 01:49:06;;;;;;;;;5.25;3.25;;;;;15.13;71.64;99935.22;5036870;28;48533;-76
2023/03/13 01:51:46;;;;;;;;;4.00;3.00;;;;;15.15;71.75;99928.97;5054775;28;45861;-75
2023/03/13 01:54:23;;;;;;;;;4.75;4.00;;;;;15.15;71.67;99907.84;5054519;28;45646;-75
2023/03/13 01:56:52;;;;;;;;;6.25;3.00;;;;;15.15;71.42;99895.50;5054957;28;45747;-75
2023/03/13 01:59:23;;;;;;;;;5.50;4.00;;;;;15.16;71.32;99899.81;5054874;28;46507;-74
2023/03/13 02:01:51;;;;;;;;;3.00;2.50;;;;;15.03;71.69;99860.63;5053840;28;46250;-75
2023/03/13 02:04:19;;;;;;;;;4.00;3.75;;;;;15.18;71.27;99902.25;5054345;28;45574;-74
2023/03/13 02:06:49;;;;;;;;;6.00;3.00;;;;;15.16;71.19;99893.69;5054942;28;45555;-75
2023/03/13 02:09:20;;;;;;;;;3.75;3.00;;;;;15.11;71.18;99891.53;5036397;28;47536;-74
2023/03/13 02:11:55;;;;;;;;;7.00;3.00;;;;;15.14;71.09;99885.91;5054102;28;46936;-74
2023/03/13 02:14:25;;;;;;;;;3.00;2.75;;;;;15.10;71.24;99882.78;5036037;28;45619;-74
2023/03/13 02:16:52;;;;;;;;;3.00;3.00;;;;;15.13;71.30;99877.19;5054652;28;45482;-74
2023/03/13 02:19:35;;;;;;;;;4.00;3.75;;;;;15.15;71.05;99887.59;5054330;28;46403;-74
2023/03/13 02:22:11;;;;;;;;;3.00;3.00;;;;;15.12;70.77;99890.50;5054363;28;46596;-74
2023/03/13 02:24:51;;;;;;;;;4.50;3.00;;;;;15.11;70.74;99873.06;5054078;28;45751;-73
2023/03/13 02:27:16;;;;;;;;;4.00;3.00;;;;;15.08;70.85;99876.81;5054511;28;45558;-75
2023/03/13 02:29:42;;;;;;;;;3.75;3.00;;;;;15.07;71.24;99867.25;5053936;28;47707;-76
2023/03/13 02:32:08;;;;;;;;;3.00;3.00;;;;;15.03;70.84;99838.69;5054451;28;46338;-74
2023/03/13 02:34:38;;;;;;;;;3.75;3.00;;;;;15.07;71.02;99848.78;5054246;28;45528;-74
2023/03/13 02:37:09;;;;;;;;;5.75;4.75;;;;;14.99;70.96;99825.00;5054117;28;45616;-74
2023/03/13 02:39:37;;;;;;;;;3.00;3.00;;;;;15.05;70.86;99849.94;5054328;28;46353;-75
2023/03/13 02:42:04;;;;;;;;;3.75;3.00;;;;;15.02;70.95;99843.13;5054204;28;46394;-75
2023/03/13 02:44:29;;;;;;;;;3.00;2.00;;;;;15.05;70.86;99850.75;5054065;28;45554;-74
2023/03/13 02:46:55;;;;;;;;;4.00;4.00;;;;;15.03;70.93;99858.00;5054861;28;45727;-74
2023/03/13 02:49:24;;;;;;;;;3.50;3.00;;;;;15.05;71.05;99858.66;5055068;28;45577;-77
2023/03/13 02:51:51;;;;;;;;;5.00;3.75;;;;;14.97;70.82;99853.34;5054920;28;45844;-74
2023/03/13 02:54:21;;;;;;;;;4.00;4.00;;;;;15.03;70.77;99838.69;5054891;28;45597;-73
2023/03/13 02:56:49;;;;;;;;;3.00;2.75;;;;;15.02;70.98;99835.22;5054520;28;45591;-74
2023/03/13 02:59:15;;;;;;;;;4.25;3.75;;;;;14.98;71.00;99820.69;5054175;28;46506;-75
2023/03/13 03:01:40;;;;;;;;;3.25;2.50;;;;;15.01;70.85;99830.09;5054060;28;46086;-75
2023/03/13 03:04:06;;;;;;;;;5.00;4.00;;;;;14.98;70.83;99811.97;5053782;28;45633;-73
2023/03/13 03:06:31;;;;;;;;;4.00;3.00;;;;;15.03;70.83;99815.78;5054078;28;45663;-75
2023/03/13 03:08:57;;;;;;;;;3.00;3.00;;;;;15.03;70.74;99818.41;5053879;28;45578;-74
2023/03/13 03:14:44;;;;;;;;;6.00;3.00;;;;;15.02;70.65;99816.75;5053676;28;45472;-74
2023/03/13 03:17:09;;;;;;;;;4.00;3.00;;;;;15.01;70.64;99807.19;5054127;28;45457;-75
2023/03/13 03:19:34;;;;;;;;;6.00;4.00;;;;;15.03;70.87;99814.94;5053424;28;46690;-74
2023/03/13 03:21:59;;;;;;;;;3.75;3.00;;;;;15.06;70.67;99817.28;5035661;28;45983;-75
2023/03/13 03:24:25;;;;;;;;;6.25;5.00;;;;;15.07;70.33;99803.09;5069130;28;46159;-74
2023/03/13 03:30:12;;;;;;;;;4.00;3.50;;;;;15.04;70.37;99806.06;5053424;28;45678;-75
2023/03/13 03:32:37;;;;;;;;;4.75;4.00;;;;;15.02;70.69;99823.84;5035302;28;47096;-75
2023/03/13 03:35:03;;;;;;;;;5.00;3.00;;;;;15.01;70.65;99811.63;5053202;28;45547;-74
2023/03/13 03:37:28;;;;;;;;;4.50;4.00;;;;;15.03;70.66;99828.13;5053616;28;45799;-75
2023/03/13 03:39:54;;;;;;;;;2.25;2.25;;;;;15.05;70.48;99810.34;5053341;28;46891;-75
2023/03/13 03:42:19;;;;;;;;;3.00;3.00;;;;;15.05;70.47;99810.34;5053398;28;45559;-75
2023/03/13 03:44:44;;;;;;;;;3.00;2.75;;;;;15.00;70.49;99813.47;5053390;28;45616;-75
2023/03/13 03:47:10;;;;;;;;;4.50;3.25;;;;;15.03;70.20;99807.88;5053624;28;45838;-74
2023/03/13 03:49:35;;;;;;;;;4.25;3.00;;;;;15.07;70.41;99818.91;5053273;28;45639;-76
2023/03/13 03:52:01;;;;;;;;;5.75;5.25;;;;;15.08;70.02;99831.13;5053143;28;46069;-74
2023/03/13 03:54:26;;;;;;;;;4.00;3.00;;;;;15.07;70.27;99811.84;5052821;28;45690;-74
2023/03/13 04:00:56;;;;;;;;;3.00;3.00;;;;;15.05;70.26;99802.44;5072841;27;46494;-75
2023/03/13 04:03:21;;;;;;;;;4.25;3.75;;;;;15.07;69.83;99797.81;5073583;28;46636;-74
2023/03/13 04:05:47;;;;;;;;;4.00;4.00;;;;;15.07;69.99;99795.19;5073552;28;45613;-74
2023/03/13 04:08:13;;;;;;;;;0.50;0.50;;;;;15.11;69.94;99802.63;5073820;28;45734;-74
2023/03/13 04:10:38;;;;;;;;;5.00;4.00;;;;;15.11;70.16;99807.09;5055162;28;48615;-74
2023/03/13 04:13:04;;;;;;;;;4.75;4.00;;;;;15.08;70.04;99799.47;5073182;28;46313;-73
2023/03/13 04:15:29;;;;;;;;;4.25;4.00;;;;;15.12;69.87;99816.63;5073456;28;45659;-74
2023/03/13 04:17:54;;;;;;;;;4.00;4.00;;;;;15.11;69.87;99807.09;5073575;28;45536;-74
2023/03/13 04:20:20;;;;;;;;;3.75;3.00;;;;;15.11;69.96;99797.34;5073241;28;45595;-74
2023/03/13 04:22:45;;;;;;;;;3.50;3.00;;;;;15.10;69.75;99805.44;5073183;28;45738;-74
2023/03/13 04:25:10;;;;;;;;;4.00;3.00;;;;;15.11;70.06;99801.81;5075634;28;45558;-74
2023/03/13 04:30:59;;;;;;;;;3.25;3.00;;;;;15.09;69.92;99785.31;5076608;28;46195;-73
2023/03/13 04:33:24;;;;;;;;;6.00;3.50;;;;;15.10;70.02;99800.97;5076225;28;46909;-74
2023/03/13 04:35:49;;;;;;;;;4.00;4.00;;;;;15.07;70.01;99788.09;5076264;28;45634;-74
2023/03/13 04:38:15;;;;;;;;;4.50;4.00;;;;;15.10;69.94;99787.78;5076652;28;45652;-74
2023/03/13 04:40:42;;;;;;;;;5.00;4.00;;;;;15.07;70.07;99777.53;5077240;28;50685;-75
2023/03/13 04:46:28;;;;;;;;;4.50;4.00;;;;;15.08;69.88;99796.84;5077763;28;45593;-75
2023/03/13 04:48:54;;;;;;;;;7.25;4.00;;;;;15.05;69.95;99787.44;5077143;28;45700;-74
2023/03/13 04:51:19;;;;;;;;;4.00;4.00;;;;;15.07;69.83;99803.09;5076957;28;47266;-74
2023/03/13 04:53:44;;;;;;;;;5.00;5.00;;;;;15.02;69.90;99789.53;5074679;28;47015;-75
2023/03/13 04:56:15;;;;;;;;;5.00;4.00;;;;;15.07;69.83;99803.91;5076515;28;45728;-74
2023/03/13 04:58:41;;;;;;;;;4.00;4.00;;;;;15.06;70.10;99799.63;5076511;28;45589;-74
2023/03/13 05:01:06;;;;;;;;;5.25;4.00;;;;;15.06;69.75;99799.63;5075702;28;45810;-75
2023/03/13 05:03:31;;;;;;;;;5.50;4.25;;;;;15.06;70.02;99807.53;5076263;28;45650;-73
2023/03/13 05:05:57;;;;;;;;;5.00;5.00;;;;;15.02;69.92;99790.38;5075866;28;45858;-73
2023/03/13 05:08:22;;;;;;;;;5.50;5.00;;;;;15.02;69.99;99794.81;5074898;28;45550;-75
2023/03/13 05:10:47;;;;;;;;;5.75;5.75;;;;;15.00;70.27;99786.25;5076600;28;46534;-74
2023/03/13 05:16:34;;;;;;;;;6.50;5.25;;;;;15.05;70.13;99771.63;5076117;28;45631;-74
2023/03/13 05:19:00;;;;;;;;;5.25;5.00;;;;;15.01;69.89;99772.06;5075941;28;45835;-74
2023/03/13 05:21:25;;;;;;;;;4.00;4.00;;;;;15.02;69.84;99768.44;5075540;28;47401;-75
2023/03/13 05:23:50;;;;;;;;;4.00;4.00;;;;;15.00;70.24;99773.06;5075765;28;46289;-74
2023/03/13 05:26:16;;;;;;;;;5.00;4.50;;;;;15.00;70.29;99778.34;5075497;28;45651;-74
2023/03/13 05:32:02;;;;;;;;;5.00;4.00;;;;;15.00;70.09;99754.59;5075406;28;45762;-75
2023/03/13 05:34:28;;;;;;;;;6.00;5.50;;;;;14.97;70.19;99774.19;5075353;28;47132;-75
2023/03/13 05:36:53;;;;;;;;;6.75;6.25;;;;;14.98;70.29;99765.31;5074477;28;45581;-74
2023/03/13 05:39:18;;;;;;;;;5.50;4.00;;;;;14.95;70.14;99767.44;5075565;28;45875;-73
2023/03/13 05:41:44;;;;;;;;;4.75;4.00;;;;;14.96;70.18;99769.91;5075045;28;47480;-75
2023/03/13 05:44:10;;;;;;;;;5.25;4.75;;;;;14.94;70.17;99761.34;5075426;28;45926;-75
2023/03/13 05:46:35;;;;;;;;;8.25;5.75;;;;;14.95;69.93;99776.16;5075429;28;45763;-75
2023/03/13 05:49:00;;;;;;;;;4.00;3.00;;;;;14.95;70.01;99764.81;5075513;28;45451;-74
2023/03/13 05:51:25;;;;;;;;;7.50;4.75;;;;;14.95;70.09;99767.44;5075047;28;47502;-74
2023/03/13 05:53:51;;;;;;;;;3.75;3.75;;;;;14.95;70.34;99772.72;5075168;28;45639;-75
2023/03/13 05:56:16;;;;;;;;;5.25;4.00;;;;;14.85;70.03;99753.53;5075294;28;45590;-75
2023/03/13 06:02:03;;;;;;;;;5.00;4.00;;;;;14.94;70.16;99761.34;5062270;28;45628;-75
2023/03/13 06:04:29;;;;;;;;;6.50;4.25;;;;;14.94;70.17;99752.59;5054780;28;45644;-75
2023/03/13 06:06:54;;;;;;;;;5.00;3.00;;;;;14.94;70.10;99750.78;5054814;28;45471;-76
2023/03/13 06:09:20;;;;;;;;;5.75;4.00;;;;;14.90;70.11;99746.00;5054881;28;45463;-76
2023/03/13 06:11:45;;;;;;;;;7.00;6.00;;;;;14.93;70.01;99743.03;5053438;28;46033;-76
2023/03/13 06:17:32;;;;;;;;;5.00;4.00;;;;;14.87;70.44;99728.66;5054558;28;45751;-75
2023/03/13 06:19:57;;;;;;;;;6.25;5.50;;;;;14.91;70.29;99734.44;5054913;28;45777;-75
2023/03/13 06:22:22;;;;;;;;;3.50;3.50;;;;;14.88;70.79;99750.59;5054618;28;46549;-75
2023/03/13 06:24:48;;;;;;;;;5.75;5.00;;;;;14.79;70.87;99725.16;5054517;28;46153;-76
2023/03/13 06:27:14;;;;;;;;;6.50;5.00;;;;;14.92;70.95;99751.91;5054311;28;45666;-74
2023/03/13 06:29:39;;;;;;;;;5.50;4.25;;;;;14.90;70.65;99730.97;5054502;28;45483;-75
2023/03/13 06:32:05;;;;;;;;;6.00;3.75;;;;;14.88;71.09;99740.03;5053063;28;46457;-74
2023/03/13 06:34:30;;;;;;;;;5.25;3.25;;;;;14.93;71.19;99740.38;5053819;28;46210;-73
2023/03/13 06:36:57;;;;;;;;;5.00;5.00;;;;;14.94;71.00;99736.78;5054201;28;45609;-74
2023/03/13 06:39:23;;;;;;;;;5.75;4.75;;;;;14.94;70.98;99734.13;5053860;28;45603;-74
2023/03/13 06:41:48;;;;;;;;;3.00;3.00;;;;;14.98;71.01;99740.72;5053639;28;47373;-77
2023/03/13 06:47:35;;;;;;;;;5.00;5.00;;;;;14.92;71.07;99726.38;5053662;28;45787;-76
2023/03/13 06:50:00;;;;;;;;;6.25;5.50;;;;;15.00;71.10;99720.31;5053601;28;45521;-76
2023/03/13 06:52:26;;;;;;;;;4.00;4.00;;;;;15.00;71.07;99715.03;5018807;28;46878;-76
2023/03/13 06:54:52;;;;;;;;;4.75;4.25;;;;;14.86;71.18;99686.59;5053627;28;46958;-84
2023/03/13 06:57:17;;;;;;;;;3.25;3.00;;;;;15.00;71.02;99717.66;5054161;28;45500;-76
2023/03/13 07:03:06;;;;;;;;;4.00;3.25;;;;;14.97;70.96;99716.16;5060346;28;45767;-77
2023/03/13 07:05:31;;;;;;;;;5.00;4.00;;;;;14.96;70.80;99711.03;5053636;28;47106;-76
2023/03/13 07:07:56;;;;;;;;;7.00;5.00;;;;;14.96;70.76;99708.41;5053935;28;45708;-76
2023/03/13 07:10:22;;;;;;;;;3.00;3.00;;;;;14.93;70.79;99699.00;5053940;28;45601;-76
2023/03/13 07:12:47;;;;;;;;;4.00;3.00;;;;;15.01;71.03;99701.66;5053085;28;47555;-76
2023/03/13 07:18:34;;;;;;;;;6.50;6.00;;;;;15.01;70.85;99714.84;5053694;28;45750;-77
2023/03/13 07:21:04;;;;;;;;;4.00;4.00;;;;;14.99;70.62;99708.94;5053741;28;45566;-77
2023/03/13 07:23:31;;;;;;;;;5.00;4.00;;;;;15.05;71.03;99704.84;5053448;28;46315;-77
2023/03/13 07:26:10;;;;;;;;;5.75;4.75;;;;;15.04;70.83;99697.91;5053538;28;45703;-74
2023/03/13 07:28:36;;;;;;;;;5.25;4.75;;;;;15.07;70.87;99705.47;5053228;28;45802;-74
2023/03/13 07:31:11;;;;;;;;;4.50;3.50;;;;;15.09;70.64;99701.72;5053426;28;45514;-74
2023/03/13 07:33:37;;;;;;;;;4.75;3.25;;;;;15.06;70.51;99685.38;5053452;28;45644;-74
2023/03/13 07:36:02;;;;;;;;;5.75;5.00;;;;;15.13;70.68;99696.94;5053324;28;46066;-73
2023/03/13 07:38:28;;;;;;;;;4.25;3.75;;;;;15.10;70.60;99684.91;5053240;28;45646;-75
2023/03/13 07:40:55;;;;;;;;;5.00;4.00;;;;;15.12;70.61;99682.91;5052745;28;45821;-76
2023/03/13 07:43:21;;;;;;;;;5.50;4.00;;;;;15.10;70.59;99676.97;5053387;28;45931;-73
2023/03/13 07:45:58;;;;;;;;;3.75;3.25;;;;;15.21;70.69;99682.94;5053323;28;46069;-74
2023/03/13 07:48:27;;;;;;;;;6.00;4.00;;;;;15.20;70.59;99676.84;5053095;28;45480;-74
2023/03/13 07:50:54;;;;;;;;;5.50;4.00;;;;;15.24;70.67;99685.25;5053061;28;45512;-75
2023/03/13 07:53:20;;;;;;;;;4.00;3.25;;;;;15.22;70.90;99674.88;5034940;28;47434;-74
2023/03/13 07:55:53;;;;;;;;;6.00;4.00;;;;;15.25;70.72;99671.06;5053059;28;46998;-76
2023/03/13 07:58:18;;;;;;;;;3.75;3.75;;;;;15.24;71.07;99664.97;5052818;28;45734;-73
2023/03/13 08:04:05;;;;;;;;;4.00;4.00;;;;;15.25;70.82;99660.50;5063697;28;45629;-74
2023/03/13 08:06:34;;;;;;;;;13.00;10.50;;;;;15.22;70.67;99661.69;5057567;28;45598;-75
2023/03/13 08:08:59;;;;;;;;;5.00;5.00;;;;;15.24;70.47;99661.50;5057268;28;45640;-76
2023/03/13 08:11:26;;;;;;;;;4.50;4.00;;;;;15.25;70.54;99663.97;5056829;28;45762;-76
2023/03/13 08:13:52;;;;;;;;;4.25;3.25;;;;;15.28;70.34;99654.91;5056585;28;46421;-75
2023/03/13 08:16:23;;;;;;;;;4.00;4.00;;;;;15.28;70.46;99644.34;5055102;28;46541;-75
2023/03/13 08:18:52;;;;;;;;;5.50;4.00;;;;;15.26;70.39;99648.97;5056607;28;45824;-75
2023/03/13 08:21:20;;;;;;;;;4.00;3.75;;;;;15.32;70.41;99665.00;5056607;28;45575;-75
2023/03/13 08:23:46;;;;;;;;;3.50;3.50;;;;;15.34;70.63;99647.16;5056275;28;46197;-75
2023/03/13 08:26:15;;;;;;;;;4.00;4.00;;;;;15.32;70.49;99641.25;5056581;28;46054;-74
2023/03/13 08:28:43;;;;;;;;;3.00;3.00;;;;;15.36;70.24;99642.56;5056760;28;45609;-75
2023/03/13 08:31:16;;;;;;;;;4.75;4.25;;;;;15.38;70.26;99637.13;5056383;28;45918;-74
2023/03/13 08:33:43;;;;;;;;;6.00;4.75;;;;;15.39;70.34;99642.22;5056302;28;46624;-73
2023/03/13 08:36:18;;;;;;;;;4.75;3.75;;;;;15.42;70.23;99634.00;5055850;28;46424;-75
2023/03/13 08:38:45;;;;;;;;;5.00;4.00;;;;;15.44;70.13;99639.91;5056190;28;45542;-74
2023/03/13 08:41:15;;;;;;;;;3.50;3.25;;;;;15.45;70.25;99622.25;5056600;28;45764;-77
2023/03/13 08:43:42;;;;;;;;;4.00;3.75;;;;;15.45;69.88;99630.19;5056217;28;45717;-73
2023/03/13 08:49:29;;;;;;;;;3.25;2.50;;;;;15.32;70.13;99606.94;5056878;28;45673;-76
2023/03/13 08:51:55;;;;;;;;;5.00;4.00;;;;;15.30;69.89;99589.59;5056444;28;45637;-76
2023/03/13 08:54:20;;;;;;;;;4.00;3.25;;;;;15.37;70.04;99612.53;5056024;28;45700;-75
2023/03/13 08:56:46;;;;;;;;;3.50;2.25;;;;;15.44;69.97;99607.41;5055868;28;46942;-75
2023/03/13 08:59:11;;;;;;;;;3.00;3.00;;;;;15.44;69.80;99604.75;5056105;28;45963;-75
2023/03/13 09:01:36;;;;;;;;;3.50;3.00;;;;;15.47;69.83;99615.84;5056004;28;45568;-73
2023/03/13 09:04:05;;;;;;;;;3.00;3.00;;;;;15.45;69.91;99601.97;5055260;28;47324;-76
2023/03/13 09:06:32;;;;;;;;;4.25;3.00;;;;;15.51;69.99;99605.75;5055502;28;47275;-75
2023/03/13 09:08:57;;;;;;;;;4.50;3.25;;;;;15.52;70.04;99597.72;5055734;28;45503;-74
2023/03/13 09:11:23;;;;;;;;;6.00;3.00;;;;;15.50;70.22;99581.19;5055493;28;45788;-76
2023/03/13 09:13:49;;;;;;;;;4.50;3.50;;;;;15.57;70.52;99577.91;5055852;28;45604;-75
2023/03/13 09:19:36;;;;;;;;;3.00;3.00;;;;;15.59;71.20;99574.13;5055560;28;45757;-75
2023/03/13 09:22:02;;;;;;;;;3.75;3.50;;;;;15.59;71.01;99560.94;5055321;28;45956;-75
2023/03/13 09:24:27;;;;;;;;;3.00;3.00;;;;;15.52;71.13;99550.19;5055452;28;45913;-73
2023/03/13 09:26:53;;;;;;;;;4.75;4.25;;;;;15.58;71.01;99548.72;5055490;28;45428;-73
2023/03/13 09:29:18;;;;;;;;;3.75;3.25;;;;;15.58;71.02;99548.72;5055687;28;45696;-74
2023/03/13 09:35:05;;;;;;;;;4.00;3.00;;;;;15.54;70.85;99539.47;5055126;28;46078;-74
2023/03/13 09:37:30;;;;;;;;;4.00;4.00;;;;;15.58;70.69;99546.06;5055086;28;48026;-75
2023/03/13 09:39:57;;;;;;;;;4.25;3.75;;;;;15.60;70.48;99538.00;5054675;28;45703;-75
2023/03/13 09:42:45;;;;;;;;;3.00;2.25;;;;;15.62;70.38;99528.91;5055541;28;45528;-76
2023/03/13 09:45:20;;;;;;;;;4.50;3.75;;;;;15.65;70.29;99533.03;5055298;28;46390;-75
2023/03/13 09:47:57;;;;;;;;;2.25;2.00;;;;;15.59;70.00;99518.69;5055352;28;46020;-75
2023/03/13 09:50:28;;;;;;;;;3.00;3.00;;;;;15.65;69.73;99517.19;5055377;28;45575;-74
2023/03/13 09:52:58;;;;;;;;;1.50;1.50;;;;;15.72;69.97;99524.25;5055229;28;45750;-76
2023/03/13 09:55:32;;;;;;;;;2.00;1.00;;;;;15.77;69.97;99526.38;5055120;28;46525;-75
2023/03/13 09:58:15;;;;;;;;;2.00;2.00;;;;;15.79;70.06;99505.91;5054939;28;47120;-76
2023/03/13 10:00:50;;;;;;;;;3.00;3.00;;;;;15.80;70.22;99504.94;5037162;28;45675;-76
2023/03/13 10:03:18;;;;;;;;;3.75;3.25;;;;;15.81;70.08;99512.69;5055157;28;45607;-75
2023/03/13 10:05:54;;;;;;;;;2.50;2.50;;;;;15.80;69.98;99516.31;5054756;28;46615;-75
2023/03/13 10:08:23;;;;;;;;;3.00;3.00;;;;;15.79;69.93;99508.56;5054623;28;46106;-76
2023/03/13 10:11:16;;;;;;;;;5.25;4.00;;;;;15.82;69.98;99509.03;5054761;28;45827;-75
2023/03/13 10:13:41;;;;;;;;;1.75;1.75;;;;;15.88;69.79;99515.47;5055059;28;45895;-75
2023/03/13 10:16:20;;;;;;;;;1.67;1.67;;;;;15.89;69.66;99503.91;5055338;28;45573;-76
2023/03/13 10:18:51;;;;;;;;;2.25;2.00;;;;;15.97;69.27;99503.06;5053864;28;48570;-76
2023/03/13 10:21:19;;;;;;;;;2.00;2.00;;;;;16.01;68.65;99496.44;5054671;28;45654;-74
2023/03/13 10:23:48;;;;;;;;;3.00;3.00;;;;;16.05;68.86;99497.72;5036820;28;45666;-75
2023/03/13 10:26:23;;;;;;;;;2.25;1.50;;;;;16.11;68.72;99511.09;5054538;28;46496;-75
2023/03/13 10:28:50;;;;;;;;;3.00;2.00;;;;;16.16;68.46;99490.25;5054623;28;46499;-74
2023/03/13 10:31:36;;;;;;;;;3.00;2.25;;;;;16.23;68.16;99478.00;5054236;28;45678;-76
2023/03/13 10:34:09;;;;;;;;;2.00;1.00;;;;;16.27;67.96;99475.84;5054396;28;45623;-74
2023/03/13 10:36:46;;;;;;;;;2.00;1.00;;;;;16.32;67.80;99469.03;5054097;28;47122;-75
2023/03/13 10:39:15;;;;;;;;;2.25;1.00;;;;;16.37;67.76;99484.38;5054458;28;46140;-75
2023/03/13 10:41:40;;;;;;;;;1.00;1.00;;;;;16.42;67.59;99474.09;5054174;28;45804;-76
2023/03/13 10:44:15;;;;;;;;;3.50;3.00;;;;;16.46;67.01;99470.13;5055270;28;45575;-75
2023/03/13 10:46:44;;;;;;;;;2.00;1.50;;;;;16.46;67.11;99461.38;5055132;28;46542;-74
2023/03/13 10:49:22;;;;;;;;;2.00;2.00;;;;;16.49;66.99;99475.06;5036749;28;46205;-77
2023/03/13 10:52:02;;;;;;;;;2.00;1.50;;;;;16.54;66.86;99471.88;5054493;28;45750;-75
2023/03/13 10:54:35;;;;;;;;;2.25;2.25;;;;;16.56;66.80;99456.69;5054444;28;45871;-73
2023/03/13 10:57:18;;;;;;;;;2.25;1.75;;;;;16.60;66.45;99450.06;5053935;28;45930;-75
2023/03/13 10:59:46;;;;;;;;;1.00;1.00;;;;;16.66;66.09;99444.91;5054185;28;46366;-75
2023/03/13 11:02:32;;;;;;;;;2.00;2.00;;;;;16.71;65.95;99431.97;5053928;28;45772;-74
2023/03/13 11:04:58;;;;;;;;;2.00;2.00;;;;;16.74;65.78;99441.34;5053903;28;45590;-76
2023/03/13 11:07:37;;;;;;;;;1.00;1.00;;;;;16.77;65.84;99439.19;5054386;28;45719;-76
2023/03/13 11:10:17;;;;;;;;;1.00;0.00;;;;;16.81;65.63;99439.66;5054162;28;47048;-76
2023/03/13 11:12:51;;;;;;;;;1.00;1.00;;;;;16.84;65.30;99436.66;5053786;28;45651;-75
2023/03/13 11:15:24;;;;;;;;;0.75;0.75;;;;;16.98;65.17;99441.16;5053747;28;45679;-75
2023/03/13 11:18:40;;;;;;;;;1.75;1.00;;;;;17.12;64.97;99456.25;5053467;28;46447;-75
2023/03/13 11:21:05;;;;;;;;;1.00;1.00;;;;;17.18;64.20;99454.72;5047602;28;46025;-76
2023/03/13 11:23:42;;;;;;;;;1.00;1.00;;;;;17.26;63.52;99464.41;5053890;28;45523;-74
2023/03/13 11:26:17;;;;;;;;;1.00;1.00;;;;;17.26;64.05;99445.88;5053597;28;45660;-74
2023/03/13 11:28:55;;;;;;;;;2.00;1.00;;;;;17.31;63.42;99470.81;5053655;28;46398;-74
2023/03/13 11:34:49;;;;;;;;;2.00;0.00;;;;;17.30;61.98;99447.16;5052127;28;45604;-74
2023/03/13 11:37:18;;;;;;;;;2.00;2.00;;;;;17.30;61.88;99450.63;5053531;28;46034;-75
2023/03/13 11:40:09;;;;;;;;;2.25;1.00;;;;;17.30;62.14;99442.69;5053275;28;47472;-73
2023/03/13 11:42:49;;;;;;;;;1.00;0.75;;;;;17.27;61.38;99461.59;5052916;28;46419;-75
2023/03/13 11:45:29;;;;;;;;;4.00;4.00;;;;;17.24;61.59;99440.75;5053348;28;45650;-75
2023/03/13 11:51:32;;;;;;;;;3.00;2.00;;;;;17.22;60.67;99442.75;5052753;28;45934;-76
2023/03/13 11:54:11;;;;;;;;;0.00;0.00;;;;;17.21;60.63;99443.78;5053216;28;46315;-75
2023/03/13 11:56:39;;;;;;;;;2.25;1.25;;;;;17.20;59.74;99437.66;5053361;28;45728;-75
2023/03/13 11:59:29;;;;;;;;;2.50;2.00;;;;;17.18;60.06;99428.22;5053376;28;45542;-74
2023/03/13 12:02:05;;;;;;;;;2.00;2.00;;;;;17.17;59.53;99414.19;5053009;28;45540;-77
2023/03/13 12:04:40;;;;;;;;;3.00;1.75;;;;;17.14;59.46;99426.97;5052751;28;46238;-75
2023/03/13 12:07:19;;;;;;;;;2.25;1.75;;;;;17.08;59.80;99422.38;5053201;28;45614;-75
2023/03/13 12:09:50;;;;;;;;;2.50;1.75;;;;;17.07;59.99;99420.72;5053350;28;45641;-76
2023/03/13 12:12:34;;;;;;;;;2.75;2.00;;;;;17.07;59.96;99413.63;5053088;28;45682;-75
2023/03/13 12:15:26;;;;;;;;;3.25;2.75;;;;;17.10;59.54;99405.34;5054025;28;45647;-73
2023/03/13 12:18:13;;;;;;;;;2.00;2.00;;;;;17.14;59.63;99390.72;5054024;28;45742;-75
2023/03/13 12:20:48;;;;;;;;;2.00;2.00;;;;;17.21;59.68;99380.25;5053523;28;45651;-74
2023/03/13 12:23:39;;;;;;;;;1.50;1.00;;;;;17.26;59.67;99382.34;5052539;28;46566;-75
2023/03/13 12:26:19;;;;;;;;;2.25;2.00;;;;;17.26;59.88;99369.94;5052430;28;46213;-75
2023/03/13 12:28:56;;;;;;;;;2.00;2.00;;;;;17.26;59.28;99366.47;5052660;28;45456;-76
2023/03/13 12:35:15;;;;;;;;;1.00;0.25;;;;;17.22;59.59;99328.91;5052474;28;46041;-75
2023/03/13 12:38:00;;;;;;;;;1.00;1.00;;;;;17.18;59.58;99332.94;5052770;28;46183;-76
2023/03/13 12:41:03;;;;;;;;;2.00;2.00;;;;;17.22;59.05;99334.22;5052834;28;45731;-75
2023/03/13 12:43:35;;;;;;;;;1.25;1.25;;;;;17.21;59.33;99327.31;5053110;28;45675;-74
2023/03/13 12:46:00;;;;;;;;;2.50;2.00;;;;;17.26;59.36;99324.94;5054759;28;46647;-75
2023/03/13 12:52:09;;;;;;;;;3.00;2.00;;;;;17.28;59.19;99295.59;5055662;28;45587;-75
2023/03/13 12:54:34;;;;;;;;;1.25;1.25;;;;;17.26;59.77;99295.81;5056111;28;45629;-75
2023/03/13 12:57:12;;;;;;;;;2.00;2.00;;;;;17.27;59.32;99300.09;5055815;28;47029;-75
2023/03/13 12:59:40;;;;;;;;;1.00;1.00;;;;;17.24;59.23;99279.28;5037468;28;46071;-75
2023/03/13 13:02:24;;;;;;;;;2.00;2.00;;;;;17.24;59.10;99303.09;5055461;28;45683;-74
2023/03/13 13:04:53;;;;;;;;;4.00;2.75;;;;;17.16;59.20;99284.69;5055597;28;45760;-74